createdAt,value
2019-03-22T00:01:40.335Z,30.00
2019-03-22T00:04:08.545Z,33.97
2019-03-22T00:06:36.659Z,32.30
2019-03-22T00:09:05.677Z,31.27
2019-03-22T00:11:33.952Z,28.80
2019-03-22T00:14:02.084Z,31.27
2019-03-22T00:16:30.491Z,32.90
2019-03-22T00:18:58.617Z,27.67
2019-03-22T00:21:26.731Z,30.70
2019-03-22T00:23:54.864Z,31.80
2019-03-22T00:26:22.976Z,29.97
2019-03-22T00:28:51.079Z,26.10
2019-03-22T00:31:19.211Z,30.03
2019-03-22T00:33:47.329Z,28.73
2019-03-22T00:36:15.455Z,31.30
2019-03-22T00:38:43.643Z,31.23
2019-03-22T00:41:11.840Z,29.53
2019-03-22T00:43:39.959Z,29.07
2019-03-22T00:46:08.090Z,23.47
2019-03-22T00:48:36.204Z,30.03
2019-03-22T00:51:04.351Z,25.13
2019-03-22T00:53:32.464Z,31.27
2019-03-22T00:56:00.592Z,32.40
2019-03-22T00:58:28.716Z,32.70
2019-03-22T01:00:56.871Z,34.33
2019-03-22T01:03:25.340Z,34.07
2019-03-22T01:05:53.467Z,29.27
2019-03-22T01:08:21.580Z,35.53
2019-03-22T01:10:49.721Z,36.23
2019-03-22T01:13:17.844Z,46.67
2019-03-22T01:15:46.028Z,44.00
2019-03-22T01:18:14.232Z,47.63
2019-03-22T01:20:42.349Z,43.53
2019-03-22T01:23:10.485Z,44.97
2019-03-22T01:25:38.600Z,41.17
2019-03-22T01:28:06.986Z,40.43
2019-03-22T01:30:35.269Z,45.97
2019-03-22T01:33:03.401Z,44.03
2019-03-22T01:35:31.511Z,36.27
2019-03-22T01:37:59.655Z,40.20
2019-03-22T01:40:27.859Z,37.10
2019-03-22T01:42:56.053Z,45.13
2019-03-22T01:45:24.195Z,39.33
2019-03-22T01:47:52.326Z,43.23
2019-03-22T01:50:20.447Z,41.43
2019-03-22T01:52:48.572Z,38.23
2019-03-22T01:55:16.760Z,34.07
2019-03-22T01:57:53.117Z,36.03
2019-03-22T02:00:15.819Z,32.67
2019-03-22T02:02:44.021Z,38.50
2019-03-22T02:05:12.212Z,37.30
2019-03-22T02:07:40.343Z,36.93
2019-03-22T02:10:09.917Z,35.17
2019-03-22T02:12:38.201Z,35.47
2019-03-22T02:15:07.219Z,40.57
2019-03-22T02:17:35.336Z,40.57
2019-03-22T02:20:05.134Z,44.27
2019-03-22T02:22:33.249Z,41.87
2019-03-22T02:25:01.381Z,36.87
2019-03-22T02:27:29.654Z,41.03
2019-03-22T02:29:57.854Z,39.07
2019-03-22T02:32:25.973Z,39.93
2019-03-22T02:34:54.101Z,45.27
2019-03-22T02:37:22.270Z,39.57
2019-03-22T02:39:50.406Z,46.00
2019-03-22T02:42:18.517Z,44.43
2019-03-22T02:44:46.648Z,48.60
2019-03-22T02:47:14.778Z,41.00
2019-03-22T02:49:42.973Z,45.13
2019-03-22T02:52:11.077Z,46.80
2019-03-22T02:54:39.212Z,44.07
2019-03-22T02:57:07.365Z,46.27
2019-03-22T02:59:35.473Z,42.33
2019-03-22T03:02:03.674Z,43.20
2019-03-22T03:04:31.784Z,44.03
2019-03-22T03:06:59.917Z,42.57
2019-03-22T03:09:28.032Z,47.73
2019-03-22T03:11:56.177Z,45.87
2019-03-22T03:14:24.292Z,44.00
2019-03-22T03:16:52.428Z,48.73
2019-03-22T03:19:20.604Z,51.87
2019-03-22T03:21:48.756Z,59.87
2019-03-22T03:24:16.894Z,56.50
2019-03-22T03:26:45.025Z,51.37
2019-03-22T03:29:13.145Z,50.77
2019-03-22T03:31:41.284Z,55.77
2019-03-22T03:34:09.694Z,60.53
2019-03-22T03:36:37.829Z,54.73
2019-03-22T03:39:07.004Z,58.03
2019-03-22T03:41:35.132Z,58.87
2019-03-22T03:44:03.422Z,55.40
2019-03-22T03:46:31.656Z,48.97
2019-03-22T03:48:59.832Z,47.73
2019-03-22T03:51:28.002Z,55.37
2019-03-22T03:53:56.207Z,58.13
2019-03-22T03:56:24.351Z,52.37
2019-03-22T03:58:53.141Z,55.57
2019-03-22T04:01:21.898Z,58.33
2019-03-22T04:03:50.089Z,59.73
2019-03-22T04:06:18.231Z,68.70
2019-03-22T04:08:46.336Z,61.47
2019-03-22T04:11:14.483Z,64.20
2019-03-22T04:13:42.599Z,70.23
2019-03-22T04:16:10.818Z,68.80
2019-03-22T04:18:39.016Z,74.43
2019-03-22T04:21:07.141Z,70.87
2019-03-22T04:23:35.280Z,71.50
2019-03-22T04:26:03.390Z,73.27
2019-03-22T04:28:31.531Z,68.10
2019-03-22T04:30:59.636Z,63.47
2019-03-22T04:33:27.777Z,64.37
2019-03-22T04:35:55.901Z,63.73
2019-03-22T04:38:24.035Z,61.33
2019-03-22T04:40:52.153Z,65.57
2019-03-22T04:43:20.316Z,59.03
2019-03-22T04:45:49.204Z,65.73
2019-03-22T04:48:18.884Z,70.63
2019-03-22T04:50:48.271Z,70.30
2019-03-22T04:53:17.962Z,74.13
2019-03-22T04:55:47.631Z,75.00
2019-03-22T04:58:16.749Z,79.73
2019-03-22T05:00:45.336Z,68.17
2019-03-22T05:03:13.549Z,63.57
2019-03-22T05:05:42.804Z,65.40
2019-03-22T05:08:11.018Z,59.87
2019-03-22T05:10:39.621Z,58.80
2019-03-22T05:13:07.928Z,65.57
2019-03-22T05:15:37.190Z,69.07
2019-03-22T05:18:05.516Z,79.47
2019-03-22T05:20:34.919Z,84.93
2019-03-22T05:23:03.415Z,89.80
2019-03-22T05:25:33.603Z,90.67
2019-03-22T05:28:02.805Z,87.13
2019-03-22T05:30:45.488Z,93.33
2019-03-22T05:33:13.628Z,92.67
2019-03-22T05:35:41.752Z,87.60
2019-03-22T05:38:09.884Z,83.87
2019-03-22T05:40:38.008Z,81.43
2019-03-22T05:43:06.146Z,76.87
2019-03-22T05:45:34.266Z,81.20
2019-03-22T05:48:02.397Z,80.30
2019-03-22T05:50:30.513Z,99.70
2019-03-22T05:52:58.649Z,90.20
2019-03-22T05:55:26.759Z,85.00
2019-03-22T05:57:54.908Z,84.03
2019-03-22T06:00:23.312Z,79.60
2019-03-22T06:02:51.443Z,86.67
2019-03-22T06:05:19.555Z,81.90
2019-03-22T06:07:47.693Z,81.57
2019-03-22T06:10:15.813Z,86.03
2019-03-22T06:12:43.949Z,76.63
2019-03-22T06:15:12.061Z,75.90
2019-03-22T06:17:50.961Z,76.00
2019-03-22T06:20:10.117Z,71.90
2019-03-22T06:22:38.266Z,59.30
2019-03-22T06:25:06.444Z,55.63
2019-03-22T06:27:34.578Z,51.67
2019-03-22T06:30:02.760Z,46.30
2019-03-22T06:32:30.872Z,38.87
2019-03-22T06:34:59.017Z,40.20
2019-03-22T06:37:27.132Z,34.23
2019-03-22T06:39:55.268Z,36.90
2019-03-22T06:42:23.424Z,33.53
2019-03-22T06:44:51.560Z,28.50
2019-03-22T06:47:19.857Z,30.37
2019-03-22T06:49:48.024Z,24.83
2019-03-22T06:52:16.154Z,29.93
2019-03-22T06:54:44.297Z,24.07
2019-03-22T06:57:12.408Z,23.77
2019-03-22T06:59:40.548Z,23.93
2019-03-22T07:02:08.745Z,22.30
2019-03-22T07:04:36.887Z,25.53
2019-03-22T07:07:05.083Z,23.03
2019-03-22T07:09:33.227Z,17.87
2019-03-22T07:12:01.430Z,15.50
2019-03-22T07:14:29.573Z,17.10
2019-03-22T07:16:58.947Z,16.00
2019-03-22T07:19:27.277Z,14.37
2019-03-22T07:21:55.387Z,16.03
2019-03-22T07:24:23.517Z,17.60
2019-03-22T07:26:51.632Z,16.87
2019-03-22T07:29:19.774Z,16.63
2019-03-22T07:31:47.905Z,16.10
2019-03-22T07:34:16.109Z,14.40
2019-03-22T07:36:46.799Z,16.10
2019-03-22T07:39:14.088Z,14.87
2019-03-22T07:41:42.269Z,12.37
2019-03-22T07:44:10.411Z,11.67
2019-03-22T07:46:38.526Z,15.17
2019-03-22T07:49:06.719Z,9.57
2019-03-22T07:51:34.817Z,9.40
2019-03-22T07:54:03.774Z,10.57
2019-03-22T07:56:32.055Z,13.20
2019-03-22T07:59:00.255Z,10.27
2019-03-22T08:01:36.265Z,11.30
2019-03-22T08:04:04.411Z,12.13
2019-03-22T08:06:32.605Z,12.63
2019-03-22T08:09:00.751Z,10.73
2019-03-22T08:11:29.669Z,8.80
2019-03-22T08:13:57.907Z,9.87
2019-03-22T08:16:26.069Z,10.30
2019-03-22T08:18:54.237Z,10.33
2019-03-22T08:21:22.400Z,8.57
2019-03-22T08:23:50.601Z,9.63
2019-03-22T08:26:18.750Z,10.40
2019-03-22T08:28:46.881Z,7.77
2019-03-22T08:31:15.082Z,8.00
2019-03-22T08:33:43.264Z,9.07
2019-03-22T08:36:11.444Z,11.67
2019-03-22T08:38:39.586Z,13.20
2019-03-22T08:41:07.725Z,14.23
2019-03-22T08:43:35.906Z,10.63
2019-03-22T08:46:04.233Z,10.07
2019-03-22T08:48:32.426Z,10.20
2019-03-22T08:51:00.619Z,13.13
2019-03-22T08:53:28.823Z,12.37
2019-03-22T08:55:57.019Z,12.53
2019-03-22T08:58:25.139Z,14.53
2019-03-22T09:00:57.794Z,16.60
2019-03-22T09:03:23.113Z,16.90
2019-03-22T09:05:51.258Z,17.77
2019-03-22T09:08:19.391Z,17.90
2019-03-22T09:10:47.517Z,20.13
2019-03-22T09:13:15.627Z,12.70
2019-03-22T09:15:43.827Z,17.40
2019-03-22T09:18:12.044Z,20.67
2019-03-22T09:20:40.223Z,19.70
2019-03-22T09:23:08.720Z,20.60
2019-03-22T09:25:37.035Z,19.30
2019-03-22T09:28:05.195Z,18.27
2019-03-22T09:30:33.419Z,17.90
2019-03-22T09:33:01.538Z,21.70
2019-03-22T09:35:29.753Z,18.90
2019-03-22T09:37:57.893Z,20.27
2019-03-22T09:40:26.104Z,17.57
2019-03-22T09:42:54.294Z,15.27
2019-03-22T09:45:22.434Z,17.33
2019-03-22T09:47:50.639Z,21.23
2019-03-22T09:50:18.908Z,19.67
2019-03-22T09:52:47.085Z,19.37
2019-03-22T09:55:15.250Z,18.27
2019-03-22T09:57:43.570Z,16.67
2019-03-22T10:00:19.451Z,17.00
2019-03-22T10:02:47.616Z,15.13
2019-03-22T10:05:15.750Z,19.43
2019-03-22T10:07:43.940Z,16.97
2019-03-22T10:10:12.236Z,19.47
2019-03-22T10:12:40.438Z,14.77
2019-03-22T10:15:08.718Z,16.87
2019-03-22T10:17:37.153Z,16.57
2019-03-22T10:20:05.922Z,14.03
2019-03-22T10:22:34.054Z,16.83
2019-03-22T10:25:02.281Z,13.77
2019-03-22T10:27:30.452Z,17.07
2019-03-22T10:29:58.740Z,16.53
2019-03-22T10:32:26.872Z,15.47
2019-03-22T10:34:55.075Z,14.87
2019-03-22T10:37:23.266Z,14.87
2019-03-22T10:39:51.420Z,10.40
2019-03-22T10:42:19.542Z,13.43
2019-03-22T10:44:47.693Z,19.83
2019-03-22T10:47:18.036Z,12.93
2019-03-22T10:49:45.677Z,16.00
2019-03-22T10:52:13.903Z,13.90
2019-03-22T10:54:42.150Z,14.47
2019-03-22T10:57:10.299Z,12.70
2019-03-22T10:59:38.435Z,16.20
2019-03-22T11:02:07.935Z,13.03
2019-03-22T11:04:36.225Z,10.30
2019-03-22T11:07:05.032Z,12.83
2019-03-22T11:09:33.407Z,17.67
2019-03-22T11:12:11.733Z,12.50
2019-03-22T11:14:31.459Z,13.67
2019-03-22T11:16:59.876Z,12.07
2019-03-22T11:19:28.015Z,12.57
2019-03-22T11:21:56.530Z,16.03
2019-03-22T11:24:24.639Z,16.73
2019-03-22T11:26:52.816Z,13.17
2019-03-22T11:29:20.936Z,17.43
2019-03-22T11:31:49.157Z,14.57
2019-03-22T11:34:17.309Z,12.50
2019-03-22T11:36:45.504Z,12.90
2019-03-22T11:39:15.955Z,17.33
2019-03-22T11:41:43.479Z,17.67
2019-03-22T11:44:11.589Z,14.67
2019-03-22T11:46:39.796Z,14.57
2019-03-22T11:49:07.920Z,13.83
2019-03-22T11:51:36.127Z,13.83
2019-03-22T11:54:04.513Z,12.77
2019-03-22T11:56:32.660Z,16.57
2019-03-22T11:59:00.777Z,13.93
2019-03-22T12:01:28.917Z,13.03
2019-03-22T12:03:57.323Z,18.67
2019-03-22T12:06:27.298Z,11.37
2019-03-22T12:08:55.311Z,12.23
2019-03-22T12:11:23.537Z,12.27
2019-03-22T12:13:51.693Z,10.43
2019-03-22T12:16:19.895Z,11.50
2019-03-22T12:18:48.012Z,12.30
2019-03-22T12:21:16.169Z,13.90
2019-03-22T12:23:44.287Z,12.50
2019-03-22T12:26:12.507Z,10.33
2019-03-22T12:28:40.622Z,12.70
2019-03-22T12:31:08.765Z,14.77
2019-03-22T12:33:36.886Z,12.37
2019-03-22T12:36:05.103Z,12.80
2019-03-22T12:38:33.276Z,16.83
2019-03-22T12:41:01.460Z,13.70
2019-03-22T12:43:29.608Z,11.20
2019-03-22T12:45:57.748Z,13.87
2019-03-22T12:48:25.866Z,13.87
2019-03-22T12:50:54.067Z,11.50
2019-03-22T12:53:22.336Z,13.23
2019-03-22T12:55:50.535Z,12.87
2019-03-22T12:58:18.676Z,10.13
2019-03-22T13:00:46.805Z,10.63
2019-03-22T13:03:15.002Z,10.97
2019-03-22T13:05:43.157Z,10.50
2019-03-22T13:08:11.352Z,10.90
2019-03-22T13:10:39.487Z,10.27
2019-03-22T13:13:07.615Z,6.93
2019-03-22T13:15:35.736Z,8.00
2019-03-22T13:18:03.933Z,12.53
2019-03-22T13:20:32.069Z,8.13
2019-03-22T13:23:00.275Z,11.00
2019-03-22T13:25:28.552Z,8.03
2019-03-22T13:27:56.674Z,8.87
2019-03-22T13:30:34.856Z,9.10
2019-03-22T13:33:03.052Z,7.50
2019-03-22T13:35:31.257Z,8.10
2019-03-22T13:37:59.390Z,10.57
2019-03-22T13:40:27.531Z,9.17
2019-03-22T13:42:55.901Z,8.07
2019-03-22T13:45:24.050Z,7.47
2019-03-22T13:47:52.268Z,9.07
2019-03-22T13:50:20.569Z,7.07
2019-03-22T13:52:48.684Z,8.63
2019-03-22T13:55:16.908Z,7.47
2019-03-22T13:57:45.104Z,9.10
2019-03-22T14:00:14.193Z,8.50
2019-03-22T14:02:42.325Z,7.67
2019-03-22T14:05:10.578Z,8.57
2019-03-22T14:07:38.712Z,8.60
2019-03-22T14:10:07.605Z,9.37
2019-03-22T14:12:37.294Z,8.13
2019-03-22T14:15:06.802Z,6.97
2019-03-22T14:17:34.945Z,7.03
2019-03-22T14:20:11.239Z,8.07
2019-03-22T14:22:34.196Z,7.90
2019-03-22T14:25:02.317Z,8.93
2019-03-22T14:27:30.444Z,7.17
2019-03-22T14:29:58.564Z,8.03
2019-03-22T14:32:26.835Z,6.90
2019-03-22T14:34:55.040Z,6.97
2019-03-22T14:37:23.181Z,7.73
2019-03-22T14:39:51.296Z,8.37
2019-03-22T14:42:19.443Z,9.37
2019-03-22T14:44:47.574Z,7.03
2019-03-22T14:47:15.777Z,7.13
2019-03-22T14:49:43.906Z,7.57
2019-03-22T14:52:12.361Z,7.07
2019-03-22T14:54:40.476Z,7.63
2019-03-22T14:57:08.629Z,10.97
2019-03-22T14:59:36.805Z,9.83
2019-03-22T15:02:05.022Z,6.90
2019-03-22T15:04:33.145Z,8.10
2019-03-22T15:07:01.356Z,6.50
2019-03-22T15:09:29.497Z,6.77
2019-03-22T15:11:57.619Z,9.00
2019-03-22T15:14:27.374Z,8.50
2019-03-22T15:17:13.460Z,7.43
2019-03-22T15:19:43.564Z,12.17
2019-03-22T15:22:16.430Z,9.40
2019-03-22T15:25:01.177Z,14.60
2019-03-22T15:27:47.145Z,9.50
2019-03-22T15:30:32.209Z,8.53
2019-03-22T15:33:16.812Z,10.23
2019-03-22T15:35:55.646Z,9.57
2019-03-22T15:38:31.578Z,9.77
2019-03-22T15:40:59.893Z,11.03
2019-03-22T15:43:28.041Z,10.60
2019-03-22T15:45:56.190Z,11.27
2019-03-22T15:48:24.405Z,10.33
2019-03-22T15:50:52.520Z,9.50
2019-03-22T15:53:20.639Z,10.03
2019-03-22T15:55:48.778Z,12.60
2019-03-22T15:58:16.903Z,9.57
2019-03-22T16:00:45.035Z,10.27
2019-03-22T16:03:13.170Z,10.73
2019-03-22T16:05:41.293Z,9.93
2019-03-22T16:08:09.410Z,9.20
2019-03-22T16:10:37.536Z,12.20
2019-03-22T16:13:05.651Z,11.03
2019-03-22T16:15:33.782Z,10.07
2019-03-22T16:18:01.901Z,10.97
2019-03-22T16:20:30.053Z,14.17
2019-03-22T16:22:58.165Z,10.23
2019-03-22T16:25:26.305Z,10.73
2019-03-22T16:27:54.418Z,13.67
2019-03-22T16:30:22.633Z,12.03
2019-03-22T16:32:50.755Z,10.63
2019-03-22T16:35:18.890Z,11.50
2019-03-22T16:37:47.016Z,12.20
2019-03-22T16:40:23.870Z,10.97
2019-03-22T16:42:45.460Z,10.90
2019-03-22T16:45:15.141Z,11.80
2019-03-22T16:47:43.336Z,12.10
2019-03-22T16:50:24.564Z,10.10
2019-03-22T16:52:52.703Z,8.97
2019-03-22T16:55:20.865Z,10.97
2019-03-22T16:57:49.084Z,8.07
2019-03-22T17:00:17.451Z,9.73
2019-03-22T17:02:45.674Z,10.00
2019-03-22T17:05:15.373Z,11.00
2019-03-22T17:07:43.637Z,9.90
2019-03-22T17:10:11.978Z,13.40
2019-03-22T17:12:40.091Z,10.23
2019-03-22T17:15:08.395Z,10.30
2019-03-22T17:17:36.561Z,11.70
2019-03-22T17:20:07.569Z,12.23
2019-03-22T17:22:35.756Z,8.90
2019-03-22T17:25:05.266Z,10.20
2019-03-22T17:27:33.369Z,10.07
2019-03-22T17:30:01.565Z,10.43
2019-03-22T17:32:29.700Z,9.93
2019-03-22T17:34:57.873Z,8.37
2019-03-22T17:37:26.022Z,12.83
2019-03-22T17:39:54.359Z,11.40
2019-03-22T17:42:22.555Z,11.57
2019-03-22T17:44:50.676Z,14.63
2019-03-22T17:47:18.855Z,12.87
2019-03-22T17:49:48.559Z,11.83
2019-03-22T17:52:17.086Z,10.47
2019-03-22T17:54:45.239Z,12.60
2019-03-22T17:57:18.559Z,11.83
2019-03-22T17:59:44.836Z,12.07
2019-03-22T18:02:13.039Z,12.87
2019-03-22T18:04:41.148Z,15.37
2019-03-22T18:07:09.348Z,14.23
2019-03-22T18:09:37.479Z,12.67
2019-03-22T18:12:05.637Z,16.67
2019-03-22T18:14:33.838Z,13.10
2019-03-22T18:17:01.981Z,14.17
2019-03-22T18:19:30.109Z,16.87
2019-03-22T18:21:58.231Z,15.40
2019-03-22T18:24:26.350Z,14.63
2019-03-22T18:26:54.564Z,13.43
2019-03-22T18:29:22.882Z,16.20
2019-03-22T18:31:51.111Z,34.07
2019-03-22T18:34:19.331Z,20.30
2019-03-22T18:36:47.462Z,20.10
2019-03-22T18:39:15.765Z,10.63
2019-03-22T18:41:43.998Z,8.47
2019-03-22T18:44:12.135Z,9.50
2019-03-22T18:46:40.283Z,8.43
2019-03-22T18:49:08.434Z,17.20
2019-03-22T18:51:39.220Z,10.57
2019-03-22T18:54:07.465Z,10.03
2019-03-22T18:56:35.659Z,8.20
2019-03-22T18:59:04.237Z,8.07
2019-03-22T19:01:32.367Z,11.17
2019-03-22T19:04:00.533Z,12.03
2019-03-22T19:06:29.051Z,10.77
2019-03-22T19:08:58.455Z,8.57
2019-03-22T19:11:26.636Z,7.07
2019-03-22T19:13:54.838Z,8.13
2019-03-22T19:16:22.985Z,7.60
2019-03-22T19:18:51.225Z,10.43
2019-03-22T19:21:19.947Z,10.77
2019-03-22T19:23:48.112Z,8.67
2019-03-22T19:26:16.295Z,10.43
2019-03-22T19:28:44.465Z,12.03
2019-03-22T19:31:12.594Z,11.23
2019-03-22T19:33:40.742Z,11.40
2019-03-22T19:36:08.847Z,15.43
2019-03-22T19:38:37.000Z,12.57
2019-03-22T19:41:05.121Z,15.60
2019-03-22T19:43:33.264Z,18.23
2019-03-22T19:46:01.462Z,14.00
2019-03-22T19:48:29.700Z,13.57
2019-03-22T19:50:57.838Z,13.37
2019-03-22T19:53:27.161Z,14.60
2019-03-22T19:55:57.082Z,16.97
2019-03-22T19:58:25.214Z,16.53
2019-03-22T20:00:53.357Z,15.13
2019-03-22T20:03:21.478Z,16.23
2019-03-22T20:05:49.683Z,15.10
2019-03-22T20:08:17.853Z,15.97
2019-03-22T20:10:46.047Z,16.93
2019-03-22T20:13:14.215Z,14.90
2019-03-22T20:15:42.438Z,19.03
2019-03-22T20:18:10.725Z,13.20
2019-03-22T20:20:38.870Z,15.53
2019-03-22T20:23:06.989Z,16.23
2019-03-22T20:25:35.203Z,17.33
2019-03-22T20:28:03.397Z,19.43
2019-03-22T20:30:31.688Z,20.13
2019-03-22T20:32:59.830Z,21.20
2019-03-22T20:35:28.102Z,20.70
2019-03-22T20:37:56.720Z,18.87
2019-03-22T20:40:25.023Z,18.83
2019-03-22T20:42:53.161Z,18.70
2019-03-22T20:45:24.471Z,17.17
2019-03-22T20:47:51.221Z,20.43
2019-03-22T20:50:19.358Z,16.40
2019-03-22T20:52:47.480Z,18.57
2019-03-22T20:55:15.626Z,17.87
2019-03-22T20:57:43.805Z,19.97
2019-03-22T21:00:13.672Z,20.47
2019-03-22T21:02:41.872Z,20.33
2019-03-22T21:05:11.794Z,18.50
2019-03-22T21:07:40.027Z,16.37
2019-03-22T21:10:08.982Z,17.67
2019-03-22T21:12:37.260Z,20.60
2019-03-22T21:15:05.768Z,23.67
2019-03-22T21:17:33.902Z,17.03
2019-03-22T21:20:02.220Z,16.77
2019-03-22T21:22:30.377Z,18.03
2019-03-22T21:24:58.548Z,18.30
2019-03-22T21:27:26.702Z,19.37
2019-03-22T21:29:54.932Z,15.80
2019-03-22T21:32:23.045Z,16.50
2019-03-22T21:34:51.183Z,15.60
2019-03-22T21:37:19.300Z,17.70
2019-03-22T21:39:47.436Z,18.83
2019-03-22T21:42:15.573Z,15.10
2019-03-22T21:44:44.057Z,20.43
2019-03-22T21:47:12.239Z,18.57
2019-03-22T21:49:40.409Z,18.23
2019-03-22T21:52:08.530Z,14.70
2019-03-22T21:54:36.741Z,13.53
2019-03-22T21:57:04.853Z,13.40
2019-03-22T21:59:33.152Z,15.13
2019-03-22T22:02:01.295Z,12.77
2019-03-22T22:04:29.428Z,16.80
2019-03-22T22:07:00.461Z,16.83
2019-03-22T22:09:28.587Z,17.07
2019-03-22T22:11:56.730Z,17.60
2019-03-22T22:14:24.939Z,19.70
2019-03-22T22:16:53.061Z,21.87
2019-03-22T22:19:21.600Z,21.20
2019-03-22T22:21:49.701Z,22.43
2019-03-22T22:24:17.861Z,21.37
2019-03-22T22:26:46.059Z,26.23
2019-03-22T22:29:14.275Z,24.57
2019-03-22T22:31:42.456Z,24.67
2019-03-22T22:34:10.569Z,29.10
2019-03-22T22:36:38.727Z,30.33
2019-03-22T22:39:07.053Z,32.67
2019-03-22T22:41:35.278Z,35.33
2019-03-22T22:44:03.834Z,35.07
2019-03-22T22:46:32.068Z,32.47
2019-03-22T22:49:00.190Z,31.13
2019-03-22T22:51:28.322Z,33.77
2019-03-22T22:53:56.436Z,26.57
2019-03-22T22:56:25.207Z,34.33
2019-03-22T22:58:53.371Z,29.60
2019-03-22T23:01:21.772Z,34.23
2019-03-22T23:03:49.945Z,28.97
2019-03-22T23:06:18.086Z,35.90
2019-03-22T23:08:46.198Z,32.47
2019-03-22T23:11:14.368Z,36.13
2019-03-22T23:13:42.480Z,34.73
2019-03-22T23:16:10.650Z,32.33
2019-03-22T23:18:38.778Z,35.30
2019-03-22T23:21:06.996Z,31.40
2019-03-22T23:23:35.113Z,31.37
2019-03-22T23:26:03.638Z,35.23
2019-03-22T23:28:31.743Z,28.03
2019-03-22T23:30:59.877Z,27.00
2019-03-22T23:33:28.001Z,26.97
2019-03-22T23:35:56.146Z,32.17
2019-03-22T23:38:24.260Z,30.47
2019-03-22T23:40:52.388Z,27.27
2019-03-22T23:43:20.509Z,26.03
2019-03-22T23:45:48.733Z,31.17
2019-03-22T23:48:16.854Z,32.27
2019-03-22T23:50:47.955Z,28.83
2019-03-22T23:53:16.368Z,29.17
2019-03-22T23:55:44.543Z,27.37
2019-03-22T23:58:12.723Z,31.20
